Time;durP1;ratioP1;P1;durP2;ratioP2;P2;SDS_P1;SDS_P2;PMS_P1;PMS_P2;Temp;Humidity;BMP_temperature;BMP_pressure;BME280_temperature;BME280_humidity;BME280_pressure;Samples;Min_cycle;Max_cycle;Signal;HPM_P1;HPM_P2
2021/09/22 00:01:22;;;;;;;8.18;4.37;;;;;;;9.75;100.00;100891.59;1721818;83;20874;-84
2021/09/22 00:03:48;;;;;;;5.60;3.72;;;;;;;9.72;100.00;100889.39;1721833;83;20909;-86
2021/09/22 00:06:14;;;;;;;6.85;3.92;;;;;;;9.71;100.00;100888.58;1721842;82;20921;-85
2021/09/22 00:08:40;;;;;;;7.15;4.17;;;;;;;9.72;100.00;100892.09;1721817;82;21000;-84
2021/09/22 00:11:06;;;;;;;7.08;3.58;;;;;;;9.73;100.00;100891.82;1721655;83;21099;-85
2021/09/22 00:13:32;;;;;;;6.35;3.52;;;;;;;9.72;100.00;100889.39;1699191;83;20861;-84
2021/09/22 00:15:58;;;;;;;6.85;3.75;;;;;;;9.74;100.00;100885.94;1721859;82;20928;-86
2021/09/22 00:18:24;;;;;;;9.18;4.00;;;;;;;9.66;100.00;100885.00;1721635;82;20917;-86
2021/09/22 00:20:49;;;;;;;9.15;4.15;;;;;;;9.67;100.00;100892.00;1721897;83;20889;-85
2021/09/22 00:23:15;;;;;;;7.65;4.10;;;;;;;9.65;100.00;100882.84;1721715;83;21896;-85
2021/09/22 00:25:41;;;;;;;7.10;4.05;;;;;;;9.66;100.00;100881.77;1721578;82;20937;-85
2021/09/22 00:28:07;;;;;;;7.00;4.30;;;;;;;9.66;100.00;100879.08;1721691;83;20861;-85
2021/09/22 00:30:34;;;;;;;8.55;4.08;;;;;;;9.68;100.00;100883.70;1721746;82;21049;-85
2021/09/22 00:33:01;;;;;;;6.12;3.83;;;;;;;9.68;100.00;100871.59;1721746;83;21035;-85
2021/09/22 00:35:27;;;;;;;11.00;4.08;;;;;;;9.68;100.00;100873.47;1721777;82;21922;-85
2021/09/22 00:37:54;;;;;;;5.75;3.77;;;;;;;9.68;100.00;100870.23;1721688;82;21489;-84
2021/09/22 00:40:20;;;;;;;8.33;3.83;;;;;;;9.70;100.00;100869.98;1721394;82;21501;-85
2021/09/22 00:42:46;;;;;;;9.35;3.95;;;;;;;9.70;100.00;100867.29;1694557;84;21027;-86
2021/09/22 00:45:13;;;;;;;5.75;3.58;;;;;;;9.70;100.00;100864.59;1694573;84;20990;-84
2021/09/22 00:47:40;;;;;;;6.00;3.70;;;;;;;9.68;100.00;100869.44;1694164;83;21096;-84
2021/09/22 00:50:08;;;;;;;7.10;3.55;;;;;;;9.69;100.00;100871.05;1690759;84;21029;-85
2021/09/22 00:52:35;;;;;;;8.40;4.03;;;;;;;9.68;100.00;100868.09;1694538;84;21058;-84
2021/09/22 00:55:01;;;;;;;6.10;3.83;;;;;;;9.66;100.00;100864.81;1694374;84;21136;-85
2021/09/22 00:57:27;;;;;;;7.75;3.95;;;;;;;9.63;100.00;100870.70;1694489;84;21073;-85
2021/09/22 00:59:53;;;;;;;8.98;4.03;;;;;;;9.60;100.00;100858.55;1669852;84;21983;-85
2021/09/22 01:02:18;;;;;;;6.28;3.72;;;;;;;9.62;100.00;100858.28;1694422;84;20855;-84
2021/09/22 01:04:45;;;;;;;7.22;3.87;;;;;;;9.60;100.00;100866.61;1694545;84;20919;-85
2021/09/22 01:07:13;;;;;;;8.23;3.75;;;;;;;9.60;100.00;100859.89;1705808;83;21008;-86
2021/09/22 01:09:41;;;;;;;6.95;3.83;;;;;;;9.57;100.00;100860.92;1721750;82;21033;-86
2021/09/22 01:12:09;;;;;;;7.17;4.25;;;;;;;9.52;100.00;100857.61;1721854;83;21139;-85
2021/09/22 01:14:35;;;;;;;5.85;3.87;;;;;;;9.54;100.00;100856.30;1721655;82;21449;-85
2021/09/22 01:17:01;;;;;;;6.33;3.25;;;;;;;9.53;100.00;100853.34;1721676;82;21021;-84
2021/09/22 01:19:27;;;;;;;8.90;3.27;;;;;;;9.52;100.00;100859.77;1721449;83;21017;-84
2021/09/22 01:21:55;;;;;;;7.87;3.62;;;;;;;9.50;100.00;100859.72;1721517;83;20981;-85
2021/09/22 01:24:22;;;;;;;5.60;3.20;;;;;;;9.49;100.00;100865.64;1721779;82;21113;-84
2021/09/22 01:26:50;;;;;;;5.37;3.35;;;;;;;9.49;100.00;100862.14;1721755;83;20957;-85
2021/09/22 01:29:17;;;;;;;5.92;3.22;;;;;;;9.50;100.00;100865.09;1699696;83;21056;-87
2021/09/22 01:31:44;;;;;;;5.50;3.42;;;;;;;9.49;100.00;100857.56;1721666;83;21072;-85
2021/09/22 01:34:13;;;;;;;7.20;3.12;;;;;;;9.49;100.00;100864.30;1721797;83;21020;-86
2021/09/22 01:36:39;;;;;;;7.15;3.35;;;;;;;9.49;100.00;100861.59;1721571;82;21096;-84
2021/09/22 01:39:06;;;;;;;5.92;3.08;;;;;;;9.53;100.00;100856.56;1721755;82;20945;-86
2021/09/22 01:41:32;;;;;;;6.10;2.92;;;;;;;9.57;100.00;100864.95;1699429;83;21576;-84
2021/09/22 01:43:58;;;;;;;6.40;2.77;;;;;;;9.58;100.00;100857.16;1721686;82;21029;-84
2021/09/22 01:46:26;;;;;;;6.22;2.92;;;;;;;9.57;100.00;100867.11;1721573;83;21407;-85
2021/09/22 01:48:52;;;;;;;5.35;2.87;;;;;;;9.56;100.00;100850.70;1721616;83;21993;-85
2021/09/22 01:51:18;;;;;;;7.50;3.20;;;;;;;9.54;100.00;100860.34;1721517;82;20897;-85
2021/09/22 01:53:44;;;;;;;5.33;3.12;;;;;;;9.53;100.00;100853.87;1721777;83;20881;-85
2021/09/22 01:56:10;;;;;;;7.03;3.00;;;;;;;9.53;100.00;100853.87;1721805;82;20881;-87
2021/09/22 01:58:37;;;;;;;6.25;2.55;;;;;;;9.52;100.00;100856.27;1699249;83;20981;-84
2021/09/22 02:01:08;;;;;;;5.65;3.00;;;;;;;9.51;100.00;100859.48;1721760;83;20994;-85
2021/09/22 02:03:35;;;;;;;7.72;3.20;;;;;;;9.50;100.00;100857.87;1721264;82;20953;-85
2021/09/22 02:06:01;;;;;;;5.50;3.02;;;;;;;9.50;100.00;100860.56;1721688;83;21008;-85
2021/09/22 02:08:27;;;;;;;5.72;3.12;;;;;;;9.52;100.00;100858.42;1721700;83;20965;-85
2021/09/22 02:10:52;;;;;;;7.15;3.37;;;;;;;9.52;100.00;100862.45;1721802;83;20973;-86
2021/09/22 02:13:18;;;;;;;5.10;3.20;;;;;;;9.52;100.00;100857.61;1721722;83;21104;-85
2021/09/22 02:15:44;;;;;;;5.37;3.08;;;;;;;9.52;100.00;100861.11;1721648;83;20849;-86
2021/09/22 02:18:10;;;;;;;6.15;3.30;;;;;;;9.53;100.00;100862.76;1719518;83;20956;-85
2021/09/22 02:20:37;;;;;;;5.78;3.22;;;;;;;9.52;100.00;100866.48;1706815;84;20838;-85
2021/09/22 02:23:03;;;;;;;5.92;3.22;;;;;;;9.53;100.00;100863.30;1706688;84;20993;-86
2021/09/22 02:25:30;;;;;;;4.37;3.02;;;;;;;9.54;100.00;100856.30;1706953;83;21652;-85
2021/09/22 02:27:55;;;;;;;7.05;3.02;;;;;;;9.54;100.00;100859.00;1706549;83;20930;-86
2021/09/22 02:30:23;;;;;;;4.87;3.10;;;;;;;9.54;100.00;100863.03;1706600;84;20970;-84
2021/09/22 02:32:51;;;;;;;4.58;2.80;;;;;;;9.52;100.00;100868.37;1706532;83;21013;-85
2021/09/22 02:35:17;;;;;;;4.22;2.60;;;;;;;9.51;100.00;100864.87;1706250;84;21146;-82
2021/09/22 02:37:44;;;;;;;5.03;2.85;;;;;;;9.52;100.00;100869.18;1706644;83;20999;-85
2021/09/22 02:40:15;;;;;;;4.62;2.47;;;;;;;9.51;100.00;100870.79;1706758;84;21485;-85
2021/09/22 02:42:42;;;;;;;3.98;2.33;;;;;;;9.51;100.00;100868.91;1706759;84;21005;-86
2021/09/22 02:45:09;;;;;;;3.80;2.50;;;;;;;9.50;100.00;100871.32;1706554;84;21025;-86
2021/09/22 02:47:35;;;;;;;3.17;2.20;;;;;;;9.55;100.00;100867.87;1706559;84;21104;-85
2021/09/22 02:50:02;;;;;;;4.45;2.30;;;;;;;9.54;100.00;100868.41;1706833;83;21018;-85
2021/09/22 02:52:28;;;;;;;2.90;2.30;;;;;;;9.54;100.00;100869.76;1706640;84;20993;-85
2021/09/22 02:54:54;;;;;;;3.67;2.20;;;;;;;9.56;100.00;100872.22;1706647;83;20945;-85
2021/09/22 02:57:19;;;;;;;4.87;2.10;;;;;;;9.61;100.00;100871.46;1706753;83;20918;-86
2021/09/22 02:59:46;;;;;;;3.75;2.40;;;;;;;9.61;100.00;100868.77;1706697;84;20913;-86
2021/09/22 03:02:11;;;;;;;4.72;2.47;;;;;;;9.61;100.00;100870.92;1706628;83;21490;-85
2021/09/22 03:04:37;;;;;;;5.53;2.67;;;;;;;9.61;100.00;100876.30;1706853;84;20874;-85
2021/09/22 03:07:03;;;;;;;3.67;2.70;;;;;;;9.61;100.00;100876.84;1706744;83;20858;-85
2021/09/22 03:09:30;;;;;;;5.70;2.75;;;;;;;9.59;100.00;100869.54;1706739;84;20870;-85
2021/09/22 03:11:55;;;;;;;3.55;2.50;;;;;;;9.58;100.00;100870.61;1706688;84;20970;-84
2021/09/22 03:14:22;;;;;;;3.55;2.58;;;;;;;9.57;100.00;100870.34;1706641;84;21017;-85
2021/09/22 03:16:48;;;;;;;5.35;2.30;;;;;;;9.57;100.00;100868.98;1706613;84;21048;-85
2021/09/22 03:19:13;;;;;;;4.03;2.65;;;;;;;9.57;100.00;100869.80;1712849;83;21627;-86
2021/09/22 03:21:40;;;;;;;2.77;1.95;;;;;;;9.57;100.00;100871.14;1721881;82;20878;-85
2021/09/22 03:24:06;;;;;;;3.20;2.40;;;;;;;9.59;100.00;100869.03;1721876;82;21059;-85
2021/09/22 03:26:31;;;;;;;4.85;2.20;;;;;;;9.55;100.00;100874.60;1721860;83;21644;-84
2021/09/22 03:28:57;;;;;;;4.37;1.98;;;;;;;9.53;100.00;100869.48;1721693;83;20865;-85
2021/09/22 03:31:23;;;;;;;4.05;2.05;;;;;;;9.50;100.00;100867.28;1721895;83;20866;-85
2021/09/22 03:33:49;;;;;;;3.17;1.95;;;;;;;9.49;100.00;100871.02;1721932;83;20905;-85
2021/09/22 03:36:15;;;;;;;3.95;1.87;;;;;;;9.52;100.00;100865.14;1721909;82;20886;-85
2021/09/22 03:38:41;;;;;;;2.95;2.00;;;;;;;9.50;100.00;100872.67;1721859;82;21107;-85
2021/09/22 03:41:07;;;;;;;3.70;1.62;;;;;;;9.51;100.00;100872.94;1721647;83;20965;-85
2021/09/22 03:43:33;;;;;;;5.87;1.75;;;;;;;9.52;100.00;100875.91;1721630;82;21524;-84
2021/09/22 03:46:00;;;;;;;3.00;1.70;;;;;;;9.51;100.00;100875.62;1721925;82;20877;-85
2021/09/22 03:48:26;;;;;;;2.65;1.67;;;;;;;9.50;100.00;100878.05;1721563;82;21065;-86
2021/09/22 03:50:52;;;;;;;2.47;1.45;;;;;;;9.53;100.00;100888.31;1721854;83;21650;-85
2021/09/22 03:53:19;;;;;;;2.37;1.60;;;;;;;9.57;100.00;100886.48;1721725;83;20877;-83
2021/09/22 03:55:46;;;;;;;2.58;1.62;;;;;;;9.58;100.00;100884.06;1721567;83;21509;-88
2021/09/22 03:58:13;;;;;;;2.65;1.77;;;;;;;9.55;100.00;100876.76;1721648;83;21032;-85
2021/09/22 04:00:39;;;;;;;5.95;1.70;;;;;;;9.60;100.00;100876.03;1722018;82;21024;-85
2021/09/22 04:03:05;;;;;;;4.22;1.72;;;;;;;9.61;100.00;100870.11;1721829;83;21215;-86
2021/09/22 04:05:31;;;;;;;2.98;1.82;;;;;;;9.64;100.00;100865.05;1721770;82;21594;-85
2021/09/22 04:07:57;;;;;;;2.62;1.75;;;;;;;9.72;100.00;100868.67;1721737;83;20933;-85
2021/09/22 04:10:23;;;;;;;4.10;1.62;;;;;;;9.77;100.00;100867.41;1721821;82;20989;-84
2021/09/22 04:12:49;;;;;;;4.70;1.50;;;;;;;9.82;100.00;100868.53;1721687;82;20959;-85
2021/09/22 04:15:15;;;;;;;2.30;1.30;;;;;;;9.84;100.00;100855.65;1721880;82;21974;-85
2021/09/22 04:17:41;;;;;;;3.17;1.50;;;;;;;9.88;100.00;100859.46;1721627;83;21030;-85
2021/09/22 04:20:09;;;;;;;2.85;1.60;;;;;;;9.90;100.00;100858.69;1718608;83;21023;-84
2021/09/22 04:22:35;;;;;;;2.92;1.80;;;;;;;9.90;100.00;100860.84;1717131;83;21531;-85
2021/09/22 04:25:03;;;;;;;2.33;1.60;;;;;;;9.91;100.00;100861.15;1717149;83;21039;-86
2021/09/22 04:27:29;;;;;;;3.25;1.70;;;;;;;9.99;100.00;100861.23;1716993;83;21152;-85
2021/09/22 04:29:55;;;;;;;3.70;1.60;;;;;;;10.10;100.00;100859.50;1717222;83;21670;-85
2021/09/22 04:32:21;;;;;;;2.92;1.40;;;;;;;10.17;100.00;100859.58;1717151;83;20909;-87
2021/09/22 04:34:46;;;;;;;2.77;1.55;;;;;;;10.23;100.00;100853.72;1717135;83;20876;-85
2021/09/22 04:37:13;;;;;;;2.10;1.60;;;;;;;10.29;100.00;100860.83;1717066;83;20976;-86
2021/09/22 04:39:39;;;;;;;2.00;1.50;;;;;;;10.35;100.00;100863.05;1717177;83;21445;-85
2021/09/22 04:42:05;;;;;;;2.92;1.52;;;;;;;10.43;100.00;100872.85;1716911;83;20897;-84
2021/09/22 04:44:31;;;;;;;2.90;1.50;;;;;;;10.50;100.00;100866.45;1717223;83;20917;-86
2021/09/22 04:46:57;;;;;;;9.78;2.30;;;;;;;10.44;100.00;100860.19;1717023;83;21728;-85
2021/09/22 04:49:23;;;;;;;2.47;1.77;;;;;;;10.52;100.00;100875.91;1717109;83;21107;-84
2021/09/22 04:51:48;;;;;;;2.47;1.50;;;;;;;10.54;100.00;100871.64;1717158;83;21019;-87
2021/09/22 04:54:14;;;;;;;2.25;1.50;;;;;;;10.61;100.00;100863.62;1717034;83;20897;-85
2021/09/22 04:56:40;;;;;;;3.47;1.85;;;;;;;10.68;100.00;100874.22;1716949;83;20888;-85
2021/09/22 04:59:06;;;;;;;1.72;1.50;;;;;;;10.75;100.00;100874.02;1717100;83;20944;-86
2021/09/22 05:01:32;;;;;;;5.12;1.57;;;;;;;10.80;100.00;100870.03;1717060;83;20913;-85
2021/09/22 05:03:58;;;;;;;2.15;1.52;;;;;;;10.87;100.00;100872.78;1694642;83;21622;-87
2021/09/22 05:06:24;;;;;;;2.40;1.60;;;;;;;10.96;100.00;100873.14;1716990;83;21059;-86
2021/09/22 05:08:50;;;;;;;4.08;2.05;;;;;;;11.01;100.00;100866.45;1717006;83;21559;-85
2021/09/22 05:11:16;;;;;;;2.20;1.55;;;;;;;11.09;100.00;100869.23;1694689;83;20885;-90
2021/09/22 05:13:42;;;;;;;1.98;1.45;;;;;;;11.11;100.00;100869.22;1717157;83;20893;-87
2021/09/22 05:16:08;;;;;;;4.37;1.47;;;;;;;11.19;100.00;100867.95;1717060;83;21128;-87
2021/09/22 05:18:34;;;;;;;2.72;1.85;;;;;;;11.31;100.00;100866.43;1694591;83;21047;-86
2021/09/22 05:21:00;;;;;;;3.52;1.70;;;;;;;11.41;100.00;100866.49;1709358;82;20893;-86
2021/09/22 05:23:26;;;;;;;2.00;1.60;;;;;;;11.47;100.00;100866.00;1708854;83;21004;-86
2021/09/22 05:25:52;;;;;;;1.80;1.45;;;;;;;11.47;100.00;100863.30;1708827;83;21438;-87
2021/09/22 05:28:17;;;;;;;3.22;1.85;;;;;;;11.50;100.00;100860.08;1705259;84;21165;-86
2021/09/22 05:30:44;;;;;;;2.08;1.40;;;;;;;11.58;100.00;100859.61;1708959;83;20925;-85
2021/09/22 05:33:11;;;;;;;1.57;1.40;;;;;;;11.69;100.00;100862.66;1682179;84;21077;-87
2021/09/22 05:35:38;;;;;;;1.85;1.40;;;;;;;11.78;100.00;100864.33;1682314;85;21089;-86
2021/09/22 05:38:05;;;;;;;3.20;1.40;;;;;;;11.98;100.00;100859.62;1682330;85;21054;-85
2021/09/22 05:40:32;;;;;;;3.02;1.40;;;;;;;12.17;100.00;100859.41;1682241;85;21143;-86
2021/09/22 05:42:58;;;;;;;1.20;1.10;;;;;;;12.28;100.00;100861.63;1682220;85;21015;-86
2021/09/22 05:45:25;;;;;;;2.70;1.55;;;;;;;12.35;100.00;100858.13;1682245;85;21070;-85
2021/09/22 05:47:51;;;;;;;2.50;1.60;;;;;;;12.42;100.00;100861.42;1682161;84;21098;-85
2021/09/22 05:50:16;;;;;;;5.05;1.67;;;;;;;12.49;100.00;100856.56;1682413;85;20888;-86
2021/09/22 05:52:42;;;;;;;2.42;1.57;;;;;;;12.50;100.00;100856.05;1682232;85;21914;-84
2021/09/22 05:55:09;;;;;;;3.72;1.70;;;;;;;12.55;100.00;100855.23;1682204;85;20915;-86
2021/09/22 05:57:35;;;;;;;2.12;1.50;;;;;;;12.67;100.00;100863.36;1693404;84;20957;-85
2021/09/22 06:00:01;;;;;;;2.08;1.32;;;;;;;12.71;100.00;100860.96;1708961;83;21037;-86
2021/09/22 06:02:33;;;;;;;1.45;1.27;;;;;;;12.82;100.00;100862.58;1708936;84;21516;-86
2021/09/22 06:04:59;;;;;;;2.60;1.55;;;;;;;12.95;100.00;100859.91;1708939;84;21301;-86
2021/09/22 06:07:25;;;;;;;3.77;1.42;;;;;;;13.05;100.00;100865.31;1708641;83;21012;-86
2021/09/22 06:09:51;;;;;;;2.47;1.60;;;;;;;13.11;100.00;100861.53;1709111;83;21104;-85
2021/09/22 06:12:19;;;;;;;2.30;1.40;;;;;;;13.06;100.00;100858.84;1708546;84;21305;-85
2021/09/22 06:14:45;;;;;;;2.22;1.35;;;;;;;13.06;100.00;100862.06;1708944;83;20930;-85
2021/09/22 06:17:11;;;;;;;4.70;1.30;;;;;;;13.10;100.00;100864.52;1708978;84;21134;-84
2021/09/22 06:19:37;;;;;;;2.02;1.20;;;;;;;13.00;100.00;100865.85;1708219;82;20929;-84
2021/09/22 06:22:03;;;;;;;1.55;1.10;;;;;;;13.03;100.00;100865.31;1706530;84;20961;-85
2021/09/22 06:24:29;;;;;;;2.30;1.42;;;;;;;13.06;100.00;100866.96;1706881;83;21018;-85
2021/09/22 06:26:55;;;;;;;2.70;1.30;;;;;;;13.07;100.00;100861.01;1684831;84;20961;-86
2021/09/22 06:29:22;;;;;;;3.15;1.15;;;;;;;13.13;100.00;100865.34;1706496;84;21921;-85
2021/09/22 06:31:48;;;;;;;1.30;1.10;;;;;;;13.25;100.00;100866.42;1706595;84;21495;-84
2021/09/22 06:34:13;;;;;;;2.65;1.30;;;;;;;13.18;100.00;100872.11;1706772;84;21516;-85
2021/09/22 06:36:39;;;;;;;4.42;1.70;;;;;;;13.24;100.00;100878.34;1706521;84;20882;-85
2021/09/22 06:39:06;;;;;;;5.50;1.10;;;;;;;13.27;100.00;100876.48;1706771;83;20937;-85
2021/09/22 06:41:33;;;;;;;2.58;1.30;;;;;;;13.34;100.00;100877.00;1702981;84;21147;-85
2021/09/22 06:44:01;;;;;;;0.98;0.90;;;;;;;13.40;100.00;100878.63;1706737;84;20970;-85
2021/09/22 06:46:27;;;;;;;1.15;0.90;;;;;;;13.32;100.00;100881.87;1706748;84;20986;-87
2021/09/22 06:48:53;;;;;;;0.78;0.78;;;;;;;13.28;100.00;100880.25;1706511;83;21457;-85
2021/09/22 06:51:19;;;;;;;1.72;0.90;;;;;;;13.34;100.00;100887.83;1706781;84;21533;-85
2021/09/22 06:53:46;;;;;;;5.62;1.22;;;;;;;13.39;100.00;100884.58;1706731;84;21147;-86
2021/09/22 06:56:13;;;;;;;1.47;0.95;;;;;;;13.43;100.00;100890.26;1706577;84;21062;-86
2021/09/22 06:58:39;;;;;;;1.98;1.00;;;;;;;13.50;100.00;100888.63;1706782;83;20969;-86
2021/09/22 07:01:04;;;;;;;2.90;1.10;;;;;;;13.57;100.00;100892.69;1706763;84;21512;-85
2021/09/22 07:03:30;;;;;;;1.50;1.10;;;;;;;13.62;100.00;100890.53;1706789;83;20894;-85
2021/09/22 07:05:56;;;;;;;1.67;1.10;;;;;;;13.66;100.00;100898.37;1706725;84;21129;-86
2021/09/22 07:08:25;;;;;;;2.47;0.93;;;;;;;13.73;100.00;100894.83;1702920;84;21714;-86
2021/09/22 07:10:52;;;;;;;0.72;0.70;;;;;;;13.75;100.00;100890.50;1684670;84;21025;-86
2021/09/22 07:13:20;;;;;;;3.55;1.00;;;;;;;13.82;100.00;100897.27;1706671;84;20981;-83
2021/09/22 07:15:47;;;;;;;3.62;1.05;;;;;;;13.88;100.00;100895.89;1706602;83;20975;-87
2021/09/22 07:18:16;;;;;;;4.37;1.07;;;;;;;14.01;100.00;100895.33;1706592;83;21002;-85
2021/09/22 07:20:42;;;;;;;3.02;1.17;;;;;;;14.17;100.00;100895.53;1681536;81;21012;-87
2021/09/22 07:23:08;;;;;;;1.10;1.00;;;;;;;14.22;100.00;100892.81;1706507;83;21045;-86
2021/09/22 07:25:35;;;;;;;1.65;1.12;;;;;;;14.19;100.00;100894.72;1706378;84;20870;-86
2021/09/22 07:28:01;;;;;;;3.22;1.00;;;;;;;14.16;100.00;100901.25;1706491;83;21626;-87
2021/09/22 07:30:27;;;;;;;3.02;1.00;;;;;;;14.07;100.00;100894.23;1686308;84;21002;-87
2021/09/22 07:32:54;;;;;;;1.65;0.98;;;;;;;14.05;100.00;100893.12;1706233;84;20966;-86
2021/09/22 07:35:20;;;;;;;1.82;0.90;;;;;;;14.16;100.00;100899.89;1706213;84;21509;-86
2021/09/22 07:37:46;;;;;;;1.22;1.07;;;;;;;14.24;100.00;100896.62;1706683;83;20846;-85
2021/09/22 07:40:14;;;;;;;2.08;1.10;;;;;;;14.38;100.00;100891.39;1706477;84;21017;-86
2021/09/22 07:42:40;;;;;;;2.02;1.10;;;;;;;14.48;100.00;100896.78;1706576;83;21121;-86
2021/09/22 07:45:08;;;;;;;1.52;0.85;;;;;;;14.60;100.00;100894.58;1706405;83;21036;-86
2021/09/22 07:47:34;;;;;;;3.15;1.20;;;;;;;14.56;100.00;100892.70;1706366;84;21084;-86
2021/09/22 07:50:00;;;;;;;3.22;1.10;;;;;;;14.47;100.00;100891.91;1686514;84;20977;-85
2021/09/22 07:52:26;;;;;;;1.37;0.88;;;;;;;14.37;100.00;100892.48;1706611;84;20982;-85
2021/09/22 07:54:52;;;;;;;1.50;1.20;;;;;;;14.24;100.00;100887.94;1706455;84;21474;-86
2021/09/22 07:57:18;;;;;;;1.57;0.95;;;;;;;14.21;100.00;100891.75;1706475;84;20874;-86
2021/09/22 07:59:44;;;;;;;1.90;1.20;;;;;;;14.21;100.00;100889.84;1663462;84;20866;-86
2021/09/22 08:02:10;;;;;;;1.52;1.20;;;;;;;14.18;100.00;100892.30;1706324;83;21000;-87
2021/09/22 08:04:36;;;;;;;1.87;1.10;;;;;;;14.15;100.00;100895.02;1706492;84;20995;-84
2021/09/22 08:07:02;;;;;;;2.05;1.17;;;;;;;14.06;100.00;100893.42;1706351;84;20937;-81
2021/09/22 08:09:29;;;;;;;6.40;1.72;;;;;;;14.10;100.00;100890.96;1706396;84;20918;-85
2021/09/22 08:11:55;;;;;;;2.65;1.30;;;;;;;14.28;100.00;100884.92;1686232;84;20965;-85
2021/09/22 08:14:24;;;;;;;6.12;1.40;;;;;;;14.40;100.00;100890.58;1706396;82;20974;-83
2021/09/22 08:16:49;;;;;;;2.30;1.40;;;;;;;14.26;100.00;100887.09;1705816;84;20982;-85
2021/09/22 08:19:15;;;;;;;1.65;1.30;;;;;;;14.14;100.00;100880.38;1706928;84;21192;-85
2021/09/22 08:21:41;;;;;;;2.10;1.50;;;;;;;14.10;100.00;100885.55;1709708;83;20990;-84
2021/09/22 08:24:07;;;;;;;2.83;1.77;;;;;;;14.07;100.00;100890.97;1711054;83;20954;-85
2021/09/22 08:26:33;;;;;;;2.72;1.57;;;;;;;14.03;100.00;100885.84;1710770;83;21546;-84
2021/09/22 08:28:59;;;;;;;3.33;1.22;;;;;;;13.93;100.00;100885.85;1710760;83;20864;-84
2021/09/22 08:31:25;;;;;;;4.62;1.30;;;;;;;13.91;100.00;100883.14;1705656;82;21628;-85
2021/09/22 08:33:51;;;;;;;12.23;1.50;;;;;;;13.96;100.00;100892.08;1710911;83;20938;-85
2021/09/22 08:36:17;;;;;;;1.20;1.10;;;;;;;14.03;100.00;100884.48;1711275;83;20986;-83
2021/09/22 08:38:43;;;;;;;1.50;1.30;;;;;;;14.09;100.00;100885.28;1711018;83;21008;-85
2021/09/22 08:41:09;;;;;;;1.77;1.30;;;;;;;14.24;100.00;100888.48;1710937;83;20880;-85
2021/09/22 08:43:35;;;;;;;2.05;1.00;;;;;;;14.24;100.00;100879.80;1710750;83;21908;-84
2021/09/22 08:46:01;;;;;;;1.17;0.90;;;;;;;14.30;100.00;100881.41;1709930;83;21047;-86
2021/09/22 08:48:27;;;;;;;2.47;1.20;;;;;;;14.48;100.00;100850.69;1707498;83;21082;-84
2021/09/22 08:50:57;;;;;;;3.30;1.50;;;;;;;14.48;100.00;100850.69;1710919;83;21585;-85
2021/09/22 08:53:23;;;;;;;3.10;1.65;;;;;;;14.78;100.00;100867.91;1711321;83;21574;-86
2021/09/22 08:55:49;;;;;;;3.80;1.70;;;;;;;14.99;100.00;100863.40;1710862;83;21062;-85
2021/09/22 08:58:15;;;;;;;9.20;2.40;;;;;;;15.33;100.00;100853.65;1710570;83;21022;-84
2021/09/22 09:00:51;;;;;;;3.02;1.50;;;;;;;15.60;100.00;100863.44;1710702;83;20931;-85
2021/09/22 09:03:34;;;;;;;1.37;1.15;;;;;;;15.80;100.00;100861.09;1595745;89;21469;-85
2021/09/22 09:06:34;;;;;;;3.92;1.47;;;;;;;15.82;100.00;100865.67;1595556;89;21108;-85
2021/09/22 09:09:03;;;;;;;1.42;1.30;;;;;;;15.73;100.00;100857.09;1595488;89;21163;-85
2021/09/22 09:11:36;;;;;;;2.90;1.70;;;;;;;15.91;100.00;100861.77;1595803;89;21545;-85
2021/09/22 09:14:06;;;;;;;2.30;1.52;;;;;;;16.01;100.00;100863.03;1596557;89;21099;-86
2021/09/22 09:16:42;;;;;;;3.25;1.62;;;;;;;16.14;100.00;100857.44;1595699;89;21100;-85
2021/09/22 09:19:21;;;;;;;4.78;2.50;;;;;;;16.29;100.00;100857.80;1595537;89;21018;-85
2021/09/22 09:21:58;;;;;;;3.02;2.10;;;;;;;16.48;100.00;100858.64;1610041;87;21109;-85
2021/09/22 09:24:47;;;;;;;4.60;1.80;;;;;;;16.45;100.00;100855.70;1622928;87;21076;-85
2021/09/22 09:27:30;;;;;;;2.90;1.80;;;;;;;16.44;100.00;100856.26;1622699;88;21036;-84
2021/09/22 09:29:55;;;;;;;2.15;1.67;;;;;;;16.40;100.00;100860.64;1622211;88;21035;-85
2021/09/22 09:32:25;;;;;;;5.90;1.75;;;;;;;16.40;100.00;100863.92;1622692;88;21586;-85
2021/09/22 09:35:18;;;;;;;2.87;1.62;;;;;;;16.43;100.00;100859.26;1622774;88;21574;-85
2021/09/22 09:37:53;;;;;;;2.12;1.37;;;;;;;16.41;100.00;100862.25;1596589;89;21606;-85
2021/09/22 09:40:33;;;;;;;2.65;1.45;;;;;;;16.41;100.00;100862.81;1587849;90;21148;-85
2021/09/22 09:43:08;;;;;;;2.22;1.40;;;;;;;16.44;100.00;100864.95;1587747;89;21621;-85
2021/09/22 09:45:42;;;;;;;1.65;1.30;;;;;;;16.36;100.00;100867.78;1537563;92;21589;-85
2021/09/22 09:48:11;;;;;;;2.85;1.10;;;;;;;16.41;100.00;100864.17;1557494;92;21187;-85
2021/09/22 09:50:57;;;;;;;2.65;1.47;;;;;;;16.24;99.42;100863.32;1560036;91;21573;-85
2021/09/22 09:53:26;;;;;;;1.62;1.30;;;;;;;16.09;100.00;100858.88;1561849;91;21094;-84
2021/09/22 09:55:56;;;;;;;2.35;1.22;;;;;;;15.86;100.00;100870.81;1561785;91;21129;-84
2021/09/22 09:58:23;;;;;;;2.37;1.25;;;;;;;15.64;100.00;100869.91;1561855;91;21086;-84
2021/09/22 10:00:53;;;;;;;3.95;1.22;;;;;;;15.34;100.00;100868.28;1610874;87;21302;-85
2021/09/22 10:03:22;;;;;;;2.02;1.40;;;;;;;15.11;100.00;100881.23;1642026;87;21491;-87
2021/09/22 10:05:50;;;;;;;4.58;1.62;;;;;;;14.83;100.00;100876.83;1642024;85;21133;-87
2021/09/22 10:08:23;;;;;;;3.12;1.87;;;;;;;14.49;100.00;100884.84;1642116;87;21038;-90
2021/09/22 10:10:56;;;;;;;2.10;1.47;;;;;;;14.14;100.00;100868.18;1642032;87;21069;-88
2021/09/22 10:13:23;;;;;;;3.30;1.77;;;;;;;14.03;100.00;100885.00;1641941;87;21199;-87
2021/09/22 10:15:50;;;;;;;3.75;1.70;;;;;;;13.85;100.00;100879.64;1642022;85;21046;-88
2021/09/22 10:18:18;;;;;;;2.95;1.82;;;;;;;13.75;100.00;100887.80;1642137;87;21013;-94
2021/09/22 10:20:46;;;;;;;2.40;1.80;;;;;;;13.61;100.00;100887.53;1645072;85;21047;-88
2021/09/22 10:23:14;;;;;;;2.47;1.70;;;;;;;13.54;100.00;100884.31;1660279;86;21061;-88
2021/09/22 10:25:42;;;;;;;5.83;2.35;;;;;;;13.50;100.00;100879.98;1662841;85;21659;-89
2021/09/22 10:28:08;;;;;;;5.45;2.10;;;;;;;13.50;100.00;100882.69;1687993;85;21032;-90
2021/09/22 10:30:47;;;;;;;2.85;2.12;;;;;;;13.55;100.00;100874.54;1662620;85;21077;-91
2021/09/22 10:33:29;;;;;;;5.17;2.30;;;;;;;13.48;100.00;100882.14;1660422;86;21105;-90
2021/09/22 10:35:58;;;;;;;4.08;2.22;;;;;;;13.42;100.00;100878.37;1596816;86;21071;-91
2021/09/22 10:38:33;;;;;;;6.78;2.33;;;;;;;13.31;100.00;100880.25;1647436;86;21149;-87
2021/09/22 10:41:02;;;;;;;7.22;2.40;;;;;;;13.24;100.00;100880.50;1647737;85;21011;-89
2021/09/22 10:43:32;;;;;;;3.70;2.50;;;;;;;13.11;100.00;100885.08;1625638;86;21090;-88
2021/09/22 10:46:14;;;;;;;4.83;2.60;;;;;;;13.02;100.00;100884.80;1647541;86;21038;-89
2021/09/22 10:48:57;;;;;;;8.53;3.00;;;;;;;12.97;100.00;100882.11;1653702;86;21121;-88
2021/09/22 10:51:37;;;;;;;5.12;2.90;;;;;;;12.99;100.00;100881.82;1624453;88;21105;-88
2021/09/22 10:54:17;;;;;;;7.00;2.80;;;;;;;13.02;100.00;100885.34;1559566;92;21058;-88
2021/09/22 10:57:01;;;;;;;3.72;2.27;;;;;;;13.11;100.00;100879.12;1559623;92;21059;-88
2021/09/22 10:59:39;;;;;;;3.85;2.25;;;;;;;13.22;100.00;100873.19;1559757;92;21617;-88
2021/09/22 11:02:09;;;;;;;4.97;2.00;;;;;;;13.34;100.00;100873.75;1562833;91;21077;-88
2021/09/22 11:05:01;;;;;;;4.92;1.98;;;;;;;13.46;100.00;100865.34;1560352;91;21184;-87
2021/09/22 11:07:59;;;;;;;4.55;1.98;;;;;;;13.62;100.00;100866.97;1553909;91;21042;-88
2021/09/22 11:10:53;;;;;;;2.30;1.82;;;;;;;13.82;100.00;100861.22;1497877;95;21097;-87
2021/09/22 11:13:31;;;;;;;7.85;1.98;;;;;;;14.11;100.00;100858.70;1526050;92;21061;-87
2021/09/22 11:16:17;;;;;;;3.58;2.02;;;;;;;14.52;100.00;100839.02;1537800;92;21148;-87
2021/09/22 11:18:51;;;;;;;4.90;2.10;;;;;;;15.01;100.00;100850.11;1482501;96;21355;-88
2021/09/22 11:21:22;;;;;;;3.02;2.20;;;;;;;15.40;100.00;100847.33;1482861;94;21144;-93
2021/09/22 11:23:49;;;;;;;3.80;2.45;;;;;;;15.57;100.00;100848.26;1483711;96;21150;-88